Time;durP1;ratioP1;P1;durP2;ratioP2;P2;SDS_P1;SDS_P2;PMS_P1;PMS_P2;Temp;Humidity;BMP_temperature;BMP_pressure;BME280_temperature;BME280_humidity;BME280_pressure;Samples;Min_cycle;Max_cycle;Signal;HPM_P1;HPM_P2
2023/06/03 00:01:13;;;;;;;2.40;2.30;;;9.40;99.90;;;;;;5072155;28;20780;-70
2023/06/03 00:03:39;;;;;;;8.80;2.50;;;9.30;99.90;;;;;;5073753;28;20193;-67
2023/06/03 00:06:06;;;;;;;2.60;2.27;;;9.20;99.90;;;;;;5075217;28;20672;-70
2023/06/03 00:08:31;;;;;;;2.57;2.47;;;9.10;99.90;;;;;;5075012;28;20512;-69
2023/06/03 00:10:57;;;;;;;2.80;2.20;;;9.20;99.90;;;;;;5074270;28;20781;-70
2023/06/03 00:13:23;;;;;;;3.23;2.43;;;9.10;99.90;;;;;;5073688;28;20194;-68
2023/06/03 00:15:49;;;;;;;2.90;2.57;;;9.10;99.90;;;;;;5073080;28;20230;-69
2023/06/03 00:18:17;;;;;;;2.37;2.27;;;9.10;99.90;;;;;;5075072;28;20194;-68
2023/06/03 00:20:47;;;;;;;2.73;2.50;;;9.10;99.90;;;;;;5073625;28;20491;-68
2023/06/03 00:23:14;;;;;;;2.40;2.13;;;9.10;99.90;;;;;;5074742;28;20516;-69
2023/06/03 00:25:39;;;;;;;2.60;2.30;;;9.10;99.90;;;;;;5073885;28;20404;-69
2023/06/03 00:28:05;;;;;;;2.43;2.33;;;9.10;99.90;;;;;;5073798;28;20438;-70
2023/06/03 00:30:31;;;;;;;2.70;2.50;;;9.00;99.90;;;;;;5073894;28;20169;-69
2023/06/03 00:32:57;;;;;;;2.70;2.50;;;8.90;99.90;;;;;;5074663;28;20189;-68
2023/06/03 00:35:23;;;;;;;2.50;2.40;;;8.90;99.90;;;;;;5074650;28;20269;-70
2023/06/03 00:37:48;;;;;;;3.00;2.70;;;8.90;99.90;;;;;;5072721;28;20183;-67
2023/06/03 00:40:16;;;;;;;2.80;2.30;;;8.80;99.90;;;;;;5073230;28;20417;-69
2023/06/03 00:42:42;;;;;;;2.23;1.90;;;8.80;99.90;;;;;;5074235;28;20200;-71
2023/06/03 00:45:08;;;;;;;2.87;2.57;;;8.70;99.90;;;;;;5074473;28;20436;-67
2023/06/03 00:47:34;;;;;;;2.63;2.53;;;8.70;99.90;;;;;;5074339;28;20201;-68
2023/06/03 00:50:00;;;;;;;2.50;2.37;;;8.60;99.90;;;;;;5073607;28;20838;-70
2023/06/03 00:52:26;;;;;;;2.33;2.23;;;8.60;99.90;;;;;;5072419;28;20512;-70
2023/06/03 00:54:52;;;;;;;3.27;2.30;;;8.60;99.90;;;;;;5074144;28;20871;-69
2023/06/03 00:57:21;;;;;;;4.23;2.40;;;8.70;99.90;;;;;;5074264;28;20398;-70
2023/06/03 00:59:46;;;;;;;2.40;2.20;;;8.70;99.90;;;;;;5073968;28;20401;-68
2023/06/03 01:02:13;;;;;;;5.00;2.10;;;8.70;99.90;;;;;;5073020;28;20386;-67
2023/06/03 01:04:42;;;;;;;6.80;2.30;;;8.70;99.90;;;;;;5072843;28;20668;-71
2023/06/03 01:07:15;;;;;;;2.20;2.10;;;8.60;99.90;;;;;;5074032;28;20425;-68
2023/06/03 01:10:12;;;;;;;2.90;2.10;;;8.70;99.90;;;;;;5074085;28;20383;-70
2023/06/03 01:12:56;;;;;;;2.50;2.30;;;8.60;99.90;;;;;;5070712;28;20921;-70
2023/06/03 01:15:24;;;;;;;2.17;2.00;;;8.60;99.90;;;;;;5073784;28;20415;-68
2023/06/03 01:17:52;;;;;;;3.73;2.80;;;8.50;99.90;;;;;;5072158;28;20437;-68
2023/06/03 01:20:19;;;;;;;2.60;2.40;;;8.50;99.90;;;;;;5070738;28;20439;-67
2023/06/03 01:22:49;;;;;;;2.77;2.50;;;8.50;99.90;;;;;;5073696;28;20461;-67
2023/06/03 01:25:16;;;;;;;2.43;2.33;;;8.50;99.90;;;;;;5073613;28;20415;-71
2023/06/03 01:27:45;;;;;;;2.43;2.23;;;8.50;99.90;;;;;;5073771;28;20481;-70
2023/06/03 01:30:13;;;;;;;2.77;2.57;;;8.40;99.90;;;;;;5072704;28;20882;-70
2023/06/03 01:32:44;;;;;;;4.13;3.40;;;8.40;99.90;;;;;;5072558;28;20466;-68
2023/06/03 01:35:11;;;;;;;2.90;2.70;;;8.40;99.90;;;;;;5073315;28;20942;-68
2023/06/03 01:37:39;;;;;;;3.93;2.40;;;8.40;99.90;;;;;;5073039;28;20475;-68
2023/06/03 01:40:07;;;;;;;4.87;2.73;;;8.40;99.90;;;;;;5071497;28;20429;-74
2023/06/03 01:42:33;;;;;;;2.63;2.43;;;8.40;99.90;;;;;;5073371;28;20417;-70
2023/06/03 01:44:58;;;;;;;5.10;2.50;;;8.30;99.90;;;;;;5071162;28;20420;-70
2023/06/03 01:47:24;;;;;;;3.17;2.73;;;8.30;99.90;;;;;;5072077;28;20207;-68
2023/06/03 01:49:50;;;;;;;4.90;2.27;;;8.20;99.90;;;;;;5073319;28;20228;-70
2023/06/03 01:52:16;;;;;;;2.80;2.60;;;8.20;99.90;;;;;;5072565;28;20172;-70
2023/06/03 01:54:41;;;;;;;2.90;2.70;;;8.20;99.90;;;;;;5071544;28;20231;-70
2023/06/03 01:57:08;;;;;;;3.03;2.73;;;8.10;99.90;;;;;;5073294;28;20410;-71
2023/06/03 01:59:34;;;;;;;3.47;2.80;;;8.10;99.90;;;;;;5072298;28;20191;-70
2023/06/03 02:02:00;;;;;;;2.80;2.60;;;8.10;99.90;;;;;;5071479;28;20759;-68
2023/06/03 02:04:27;;;;;;;3.07;2.80;;;8.10;99.90;;;;;;5073299;28;20458;-70
2023/06/03 02:06:55;;;;;;;3.40;2.33;;;8.10;99.90;;;;;;5072242;28;20469;-67
2023/06/03 02:09:22;;;;;;;4.23;2.73;;;8.10;99.90;;;;;;5073002;28;20371;-70
2023/06/03 02:11:52;;;;;;;3.20;2.50;;;8.10;99.90;;;;;;5070769;28;20912;-70
2023/06/03 02:14:18;;;;;;;2.57;2.37;;;8.00;99.90;;;;;;5072861;28;20471;-70
2023/06/03 02:16:43;;;;;;;2.80;2.60;;;8.00;99.90;;;;;;5073017;28;20868;-70
2023/06/03 02:19:20;;;;;;;2.60;2.30;;;8.00;99.90;;;;;;5073112;28;20393;-67
2023/06/03 02:21:47;;;;;;;4.33;2.60;;;8.00;99.90;;;;;;5072099;28;20252;-67
2023/06/03 02:24:14;;;;;;;2.40;2.30;;;8.00;99.90;;;;;;5072878;28;20789;-66
2023/06/03 02:26:49;;;;;;;2.50;2.40;;;8.00;99.90;;;;;;5071500;28;20433;-68
2023/06/03 02:29:16;;;;;;;3.27;3.00;;;7.90;99.90;;;;;;5072691;28;20956;-70
2023/06/03 02:31:42;;;;;;;2.70;2.50;;;7.90;99.90;;;;;;5071987;28;20413;-68
2023/06/03 02:34:08;;;;;;;3.40;2.90;;;7.80;99.90;;;;;;5072800;28;20421;-70
2023/06/03 02:36:35;;;;;;;3.27;2.97;;;7.80;99.90;;;;;;5071817;28;20441;-69
2023/06/03 02:39:01;;;;;;;2.33;2.13;;;7.70;99.90;;;;;;5071597;28;20179;-67
2023/06/03 02:41:26;;;;;;;3.10;2.90;;;7.70;99.90;;;;;;5070814;28;20417;-68
2023/06/03 02:43:52;;;;;;;2.80;2.60;;;7.80;99.90;;;;;;5070610;28;20464;-71
2023/06/03 02:46:18;;;;;;;3.50;3.20;;;7.80;99.90;;;;;;5072750;28;20225;-70
2023/06/03 02:48:43;;;;;;;3.67;2.67;;;7.80;99.90;;;;;;5071806;28;20694;-68
2023/06/03 02:51:09;;;;;;;3.10;2.80;;;7.80;99.90;;;;;;5071956;28;20170;-70
2023/06/03 02:53:35;;;;;;;2.60;2.40;;;7.80;99.90;;;;;;5072549;28;20547;-68
2023/06/03 02:56:01;;;;;;;3.13;2.93;;;7.80;99.90;;;;;;5070414;28;20191;-70
2023/06/03 02:58:28;;;;;;;2.97;2.77;;;7.80;99.90;;;;;;5071938;28;20442;-67
2023/06/03 03:00:53;;;;;;;4.40;3.73;;;7.70;99.90;;;;;;5071672;28;20391;-68
2023/06/03 03:03:19;;;;;;;2.80;2.60;;;7.80;99.90;;;;;;5071838;28;20194;-68
2023/06/03 03:05:46;;;;;;;3.10;2.90;;;7.70;99.90;;;;;;5072670;28;20171;-70
2023/06/03 03:08:11;;;;;;;3.23;3.03;;;7.70;99.90;;;;;;5072391;28;20209;-68
2023/06/03 03:10:37;;;;;;;4.03;2.40;;;7.80;99.90;;;;;;5068658;28;20421;-67
2023/06/03 03:13:03;;;;;;;11.53;2.97;;;7.80;99.90;;;;;;5072368;28;20290;-70
2023/06/03 03:15:28;;;;;;;3.40;2.70;;;7.80;99.90;;;;;;5076117;28;20634;-68
2023/06/03 03:17:54;;;;;;;2.60;2.40;;;7.80;99.90;;;;;;5076135;28;20182;-71
2023/06/03 03:20:20;;;;;;;3.20;2.50;;;7.70;99.90;;;;;;5074783;28;20758;-70
2023/06/03 03:22:46;;;;;;;3.03;2.83;;;7.70;99.90;;;;;;5075690;28;20195;-68
2023/06/03 03:25:14;;;;;;;2.97;2.77;;;7.70;99.90;;;;;;5075090;28;20214;-68
2023/06/03 03:27:40;;;;;;;4.07;3.07;;;7.60;99.90;;;;;;5075964;28;20709;-68
2023/06/03 03:30:07;;;;;;;3.07;2.77;;;7.60;99.90;;;;;;5074935;28;20400;-72
2023/06/03 03:32:34;;;;;;;2.87;2.67;;;7.70;99.90;;;;;;5075852;28;20166;-71
2023/06/03 03:35:16;;;;;;;3.73;2.80;;;7.70;99.90;;;;;;5075795;28;20902;-70
2023/06/03 03:37:43;;;;;;;3.17;2.87;;;7.70;99.90;;;;;;5073990;28;20438;-67
2023/06/03 03:40:22;;;;;;;5.10;3.10;;;7.80;99.90;;;;;;5074780;28;20405;-68
2023/06/03 03:42:52;;;;;;;2.83;2.53;;;7.80;99.90;;;;;;5074306;28;20437;-70
2023/06/03 03:45:20;;;;;;;2.40;2.30;;;7.80;99.90;;;;;;5075579;28;20451;-68
2023/06/03 03:47:50;;;;;;;3.40;3.20;;;7.90;99.90;;;;;;5075646;28;20491;-68
2023/06/03 03:50:31;;;;;;;4.70;2.40;;;7.90;99.90;;;;;;5074535;28;20768;-69
2023/06/03 03:53:03;;;;;;;3.30;3.00;;;8.00;99.90;;;;;;5075463;28;20507;-67
2023/06/03 03:55:29;;;;;;;4.60;3.23;;;8.00;99.90;;;;;;5074930;28;20860;-68
2023/06/03 03:57:55;;;;;;;3.03;2.83;;;8.00;1.00;;;;;;5075467;28;20408;-69
2023/06/03 04:00:22;;;;;;;2.73;2.53;;;8.10;1.00;;;;;;5073564;28;20438;-70
2023/06/03 04:02:53;;;;;;;2.77;2.57;;;8.10;1.00;;;;;;5075219;28;20473;-70
2023/06/03 04:05:22;;;;;;;2.80;2.60;;;8.10;1.00;;;;;;5075300;28;20411;-68
2023/06/03 04:07:48;;;;;;;2.43;2.23;;;8.20;1.00;;;;;;5073658;28;20474;-70
2023/06/03 04:10:15;;;;;;;2.90;2.70;;;8.20;1.00;;;;;;5072916;28;20903;-67
2023/06/03 04:12:41;;;;;;;2.93;2.67;;;8.30;1.00;;;;;;5074617;28;20497;-68
2023/06/03 04:15:08;;;;;;;2.77;2.57;;;8.30;1.00;;;;;;5075162;28;20422;-70
2023/06/03 04:17:37;;;;;;;3.10;2.83;;;8.40;1.00;;;;;;5075083;28;20378;-70
2023/06/03 04:20:09;;;;;;;3.00;2.80;;;8.40;1.00;;;;;;5074678;28;20911;-74
2023/06/03 04:22:35;;;;;;;2.67;2.50;;;8.50;1.00;;;;;;5073855;28;20441;-72
2023/06/03 04:25:11;;;;;;;2.87;2.73;;;8.60;1.00;;;;;;5072880;28;20950;-67
2023/06/03 04:27:36;;;;;;;2.70;2.50;;;8.60;1.00;;;;;;5074815;28;20444;-70
2023/06/03 04:30:04;;;;;;;2.77;2.57;;;8.70;1.00;;;;;;5073241;28;20419;-70
2023/06/03 04:32:30;;;;;;;3.67;3.30;;;8.70;1.00;;;;;;5073959;28;20166;-68
2023/06/03 04:34:55;;;;;;;2.93;2.73;;;8.80;1.00;;;;;;5074869;28;20496;-70
2023/06/03 04:37:23;;;;;;;3.43;3.23;;;8.80;1.00;;;;;;5073768;28;20255;-68
2023/06/03 04:39:48;;;;;;;2.93;2.73;;;8.90;1.00;;;;;;5074590;28;20252;-71
2023/06/03 04:42:15;;;;;;;2.70;2.50;;;8.90;1.00;;;;;;5073807;28;20576;-70
2023/06/03 04:44:42;;;;;;;4.97;3.20;;;9.00;1.00;;;;;;5074252;28;20246;-72
2023/06/03 04:47:12;;;;;;;4.70;3.60;;;9.10;1.00;;;;;;5074109;28;20454;-69
2023/06/03 04:49:38;;;;;;;4.13;3.63;;;9.10;1.00;;;;;;5065373;28;20436;-70
2023/06/03 04:52:09;;;;;;;4.47;3.53;;;9.20;1.00;;;;;;5065321;28;20406;-71
2023/06/03 04:54:36;;;;;;;4.57;3.70;;;9.30;1.00;;;;;;5071917;28;20817;-70
2023/06/03 04:57:02;;;;;;;4.37;3.60;;;9.30;1.00;;;;;;5074282;28;20890;-67
2023/06/03 04:59:27;;;;;;;3.17;2.90;;;9.40;1.00;;;;;;5074237;28;20443;-68
2023/06/03 05:01:53;;;;;;;4.33;3.20;;;9.40;1.00;;;;;;5073313;28;20431;-67
2023/06/03 05:04:19;;;;;;;4.03;3.37;;;9.50;1.00;;;;;;5073409;28;20212;-68
2023/06/03 05:06:49;;;;;;;3.70;3.40;;;9.60;1.00;;;;;;5073318;28;20174;-68
2023/06/03 05:09:15;;;;;;;7.00;3.80;;;9.70;1.00;;;;;;5073953;28;20381;-69
2023/06/03 05:11:42;;;;;;;3.83;3.50;;;9.80;1.00;;;;;;5073122;28;20439;-71
2023/06/03 05:14:08;;;;;;;7.83;3.53;;;9.90;1.00;;;;;;5073930;28;20748;-71
2023/06/03 05:16:35;;;;;;;4.10;3.77;;;9.90;1.00;;;;;;5073866;28;20386;-68
2023/06/03 05:19:01;;;;;;;5.73;4.10;;;10.00;1.00;;;;;;5072904;28;20985;-68
2023/06/03 05:21:27;;;;;;;4.37;3.77;;;10.10;1.00;;;;;;5071533;28;20486;-68
2023/06/03 05:23:52;;;;;;;3.67;3.40;;;10.20;1.00;;;;;;5073715;28;20182;-72
2023/06/03 05:26:18;;;;;;;2.80;2.70;;;10.30;1.00;;;;;;5073233;28;20178;-70
2023/06/03 05:28:44;;;;;;;3.13;2.93;;;10.40;1.00;;;;;;5073475;28;20671;-68
2023/06/03 05:31:09;;;;;;;4.20;3.90;;;10.50;1.00;;;;;;5062970;28;20583;-69
2023/06/03 05:33:36;;;;;;;3.73;3.37;;;10.50;1.00;;;;;;5053473;28;20258;-67
2023/06/03 05:36:02;;;;;;;3.60;3.33;;;10.70;1.00;;;;;;5053500;28;20404;-68
2023/06/03 05:38:27;;;;;;;3.60;3.30;;;10.70;1.00;;;;;;5053608;28;20404;-67
2023/06/03 05:40:53;;;;;;;3.67;2.60;;;10.80;1.00;;;;;;5052521;28;20380;-73
2023/06/03 05:43:19;;;;;;;3.77;2.90;;;10.90;1.00;;;;;;5053206;28;20548;-71
2023/06/03 05:45:46;;;;;;;3.77;2.23;;;11.00;1.00;;;;;;5063689;28;20471;-68
2023/06/03 05:48:12;;;;;;;2.30;2.10;;;11.10;1.00;;;;;;5073252;28;20468;-72
2023/06/03 05:50:48;;;;;;;2.43;1.80;;;11.20;1.00;;;;;;5072441;28;20437;-71
2023/06/03 05:53:14;;;;;;;2.30;2.20;;;11.40;1.00;;;;;;5073128;28;20420;-68
2023/06/03 05:55:40;;;;;;;2.40;2.20;;;11.50;1.00;;;;;;5073198;28;20378;-71
2023/06/03 05:58:05;;;;;;;2.20;2.10;;;11.60;1.00;;;;;;5073052;28;20177;-68
2023/06/03 06:00:31;;;;;;;2.43;2.23;;;11.70;1.00;;;;;;5065771;28;20278;-68
2023/06/03 06:02:57;;;;;;;2.40;2.20;;;11.80;1.00;;;;;;5065647;28;20705;-69
2023/06/03 06:05:25;;;;;;;1.73;1.63;;;11.90;1.00;;;;;;5068458;28;20683;-68
2023/06/03 06:07:51;;;;;;;1.90;1.80;;;11.90;1.00;;;;;;5066792;28;20249;-71
2023/06/03 06:10:17;;;;;;;5.20;2.00;;;12.00;1.00;;;;;;5052141;28;20380;-70
2023/06/03 06:12:43;;;;;;;1.97;1.70;;;12.10;1.00;;;;;;5053094;28;20194;-72
2023/06/03 06:15:09;;;;;;;2.90;2.00;;;12.30;1.00;;;;;;5072195;28;20436;-71
2023/06/03 06:17:35;;;;;;;4.07;1.73;;;12.40;1.00;;;;;;5071141;28;20654;-65
2023/06/03 06:20:02;;;;;;;3.00;2.00;;;12.50;1.00;;;;;;5072637;28;20383;-64
2023/06/03 06:22:28;;;;;;;3.67;1.70;;;12.60;1.00;;;;;;5071839;28;20411;-65
2023/06/03 06:24:54;;;;;;;3.80;2.40;;;12.80;1.00;;;;;;5071759;28;20736;-64
2023/06/03 06:27:20;;;;;;;2.20;2.10;;;13.00;1.00;;;;;;5072824;28;20261;-65
2023/06/03 06:29:45;;;;;;;1.70;1.60;;;13.00;1.00;;;;;;5072199;28;20566;-64
2023/06/03 06:32:21;;;;;;;2.17;1.80;;;13.20;1.00;;;;;;5051497;28;20229;-64
2023/06/03 06:34:47;;;;;;;1.37;1.27;;;13.30;1.00;;;;;;5052792;28;20178;-64
2023/06/03 06:37:13;;;;;;;1.60;1.50;;;13.30;1.00;;;;;;5052867;28;20470;-66
2023/06/03 06:39:46;;;;;;;1.50;1.40;;;13.40;1.00;;;;;;5052184;28;20198;-64
2023/06/03 06:42:28;;;;;;;2.23;1.30;;;13.60;1.00;;;;;;5063195;28;20432;-64
2023/06/03 06:44:54;;;;;;;1.70;1.60;;;13.70;99.90;;;;;;5069738;28;20424;-64
2023/06/03 06:47:21;;;;;;;2.37;1.70;;;13.70;99.90;;;;;;5053303;28;20965;-65
2023/06/03 06:49:48;;;;;;;1.67;1.57;;;13.90;99.90;;;;;;5056731;28;20455;-71
2023/06/03 06:52:14;;;;;;;1.40;1.20;;;13.90;99.90;;;;;;5055899;28;20397;-65
2023/06/03 06:54:41;;;;;;;1.83;1.73;;;13.90;99.90;;;;;;5061088;28;20452;-65
2023/06/03 06:57:07;;;;;;;1.30;1.20;;;14.10;99.90;;;;;;5066103;28;20167;-65
2023/06/03 06:59:33;;;;;;;2.80;1.67;;;14.20;99.90;;;;;;5072734;28;20441;-65
2023/06/03 07:01:59;;;;;;;1.37;1.27;;;14.30;99.90;;;;;;5066267;28;20182;-66
2023/06/03 07:04:25;;;;;;;1.23;1.13;;;14.40;99.90;;;;;;5076404;28;20420;-65
2023/06/03 07:06:51;;;;;;;1.40;1.30;;;14.50;99.90;;;;;;5076285;28;20411;-65
2023/06/03 07:09:16;;;;;;;1.83;1.37;;;14.60;99.90;;;;;;5076330;28;20166;-65
2023/06/03 07:11:44;;;;;;;2.23;1.23;;;14.60;99.90;;;;;;5075405;28;20167;-65
2023/06/03 07:14:11;;;;;;;1.90;1.80;;;14.70;99.90;;;;;;5070699;28;20202;-65
2023/06/03 07:16:38;;;;;;;1.47;1.30;;;14.70;99.90;;;;;;5074116;28;20427;-66
2023/06/03 07:19:04;;;;;;;1.30;1.20;;;14.90;99.90;;;;;;5076274;28;20397;-65
2023/06/03 07:21:31;;;;;;;3.10;1.30;;;15.00;99.90;;;;;;5075233;28;20396;-65
2023/06/03 07:23:57;;;;;;;1.50;1.10;;;15.00;99.90;;;;;;5075887;28;20943;-65
2023/06/03 07:26:27;;;;;;;1.97;1.30;;;15.10;99.90;;;;;;5074027;28;20420;-65
2023/06/03 07:28:56;;;;;;;3.43;1.20;;;15.20;99.90;;;;;;5070483;28;20453;-65
2023/06/03 07:31:22;;;;;;;1.40;1.00;;;15.30;99.90;;;;;;5055080;28;20434;-68
2023/06/03 07:33:52;;;;;;;1.00;0.90;;;15.40;99.90;;;;;;5068790;28;20847;-69
2023/06/03 07:36:26;;;;;;;1.23;1.00;;;15.50;99.90;;;;;;5073445;28;20417;-69
2023/06/03 07:39:08;;;;;;;1.37;1.27;;;15.60;99.90;;;;;;5075793;28;20417;-69
2023/06/03 07:41:53;;;;;;;1.30;1.17;;;15.70;99.90;;;;;;5073969;28;20439;-68
2023/06/03 07:44:40;;;;;;;1.40;1.00;;;15.90;99.90;;;;;;5074841;28;20485;-68
2023/06/03 07:47:07;;;;;;;1.40;1.30;;;15.90;99.90;;;;;;5075482;28;20483;-65
2023/06/03 07:49:33;;;;;;;1.03;0.90;;;16.00;99.90;;;;;;5075326;28;20428;-66
2023/06/03 07:51:59;;;;;;;1.67;1.30;;;16.10;99.90;;;;;;5074618;28;20389;-68
2023/06/03 07:54:27;;;;;;;1.50;1.40;;;16.10;99.90;;;;;;5072883;28;20527;-67
2023/06/03 07:56:55;;;;;;;3.23;1.10;;;16.20;99.90;;;;;;5075397;28;20253;-65
2023/06/03 07:59:21;;;;;;;1.20;1.10;;;16.20;99.90;;;;;;5072766;28;20774;-68
2023/06/03 08:01:50;;;;;;;1.90;0.90;;;16.30;99.90;;;;;;5074622;28;20399;-69
2023/06/03 08:04:34;;;;;;;1.30;1.10;;;16.40;99.90;;;;;;5075107;28;20451;-68
2023/06/03 08:07:02;;;;;;;1.10;1.00;;;16.30;99.90;;;;;;5075284;28;20486;-68
2023/06/03 08:09:34;;;;;;;1.87;1.50;;;16.40;99.90;;;;;;5074462;28;20433;-69
2023/06/03 08:12:02;;;;;;;1.10;0.87;;;16.50;99.90;;;;;;5074068;28;20921;-69
2023/06/03 08:14:30;;;;;;;3.17;1.17;;;16.70;99.90;;;;;;5074695;28;20470;-66
2023/06/03 08:16:58;;;;;;;2.40;1.10;;;16.80;99.90;;;;;;5073089;28;20428;-65
2023/06/03 08:19:24;;;;;;;2.37;1.20;;;16.80;99.90;;;;;;5075123;28;20861;-69
2023/06/03 08:21:50;;;;;;;1.40;1.27;;;16.90;99.90;;;;;;5073610;28;20425;-69
2023/06/03 08:24:16;;;;;;;1.43;1.07;;;17.00;99.90;;;;;;5074886;28;20655;-67
2023/06/03 08:26:44;;;;;;;1.43;0.90;;;17.10;99.90;;;;;;5074788;28;20474;-68
2023/06/03 08:29:13;;;;;;;1.10;1.00;;;17.20;99.90;;;;;;5074443;28;20163;-66
2023/06/03 08:31:39;;;;;;;1.20;1.00;;;17.10;99.90;;;;;;5073950;28;20393;-65
2023/06/03 08:34:05;;;;;;;1.17;1.03;;;17.20;99.90;;;;;;5074783;28;20734;-65
2023/06/03 08:36:32;;;;;;;1.10;1.00;;;17.30;99.90;;;;;;5073783;28;20253;-67
2023/06/03 08:38:58;;;;;;;1.13;1.03;;;17.50;99.90;;;;;;5074784;28;20631;-65
2023/06/03 08:41:35;;;;;;;1.67;1.37;;;17.60;99.90;;;;;;5073734;28;20393;-66
2023/06/03 08:44:20;;;;;;;1.20;1.10;;;17.80;99.90;;;;;;5074445;28;20443;-69
2023/06/03 08:47:12;;;;;;;1.27;0.90;;;17.80;99.90;;;;;;5074294;28;20397;-69
2023/06/03 08:49:51;;;;;;;2.03;0.87;;;17.90;99.90;;;;;;5072758;28;20424;-65
2023/06/03 08:52:19;;;;;;;1.17;1.00;;;18.10;99.90;;;;;;5072382;28;20431;-68
2023/06/03 08:54:45;;;;;;;1.50;1.20;;;18.30;99.90;;;;;;5074265;28;20990;-69
2023/06/03 08:57:19;;;;;;;1.23;0.97;;;18.40;99.90;;;;;;5074412;28;20404;-67
2023/06/03 08:59:45;;;;;;;2.07;0.90;;;18.70;99.90;;;;;;5073042;28;20917;-65
2023/06/03 09:02:12;;;;;;;2.27;1.10;;;18.90;99.90;;;;;;5071204;28;20432;-69
2023/06/03 09:04:38;;;;;;;1.30;1.00;;;19.00;99.90;;;;;;5071969;28;20455;-67
2023/06/03 09:07:06;;;;;;;1.10;0.87;;;19.20;99.90;;;;;;5074080;28;20967;-66
2023/06/03 09:09:34;;;;;;;3.03;1.20;;;19.20;99.90;;;;;;5073439;28;20912;-68
2023/06/03 09:12:02;;;;;;;2.30;1.27;;;19.40;99.90;;;;;;5071806;28;20486;-65
2023/06/03 09:14:30;;;;;;;1.00;0.70;;;19.70;99.90;;;;;;5072690;28;20443;-69
2023/06/03 09:16:56;;;;;;;2.87;2.27;;;19.70;99.90;;;;;;5061682;28;20516;-67
2023/06/03 09:19:25;;;;;;;1.67;0.80;;;19.90;99.90;;;;;;5072137;28;20401;-65
2023/06/03 09:21:53;;;;;;;3.10;1.47;;;20.00;99.90;;;;;;5068207;28;20405;-65
2023/06/03 09:24:18;;;;;;;1.47;0.80;;;20.00;99.90;;;;;;5073522;28;20971;-65
2023/06/03 09:26:44;;;;;;;1.20;1.03;;;20.10;99.90;;;;;;5072753;28;20430;-64
2023/06/03 09:29:13;;;;;;;1.80;1.10;;;20.30;99.90;;;;;;5073705;28;20174;-63
2023/06/03 09:31:40;;;;;;;2.50;0.70;;;20.30;99.90;;;;;;5072690;28;20393;-64
2023/06/03 09:34:07;;;;;;;1.93;0.97;;;20.50;99.90;;;;;;5067491;28;20445;-63
2023/06/03 09:36:44;;;;;;;1.60;0.93;;;20.60;99.90;;;;;;5061350;28;20432;-67
2023/06/03 09:39:10;;;;;;;2.30;2.10;;;20.90;99.90;;;;;;5073453;28;20404;-65
2023/06/03 09:41:36;;;;;;;2.50;0.90;;;21.20;99.90;;;;;;5068745;28;20951;-63
2023/06/03 09:44:06;;;;;;;5.00;0.97;;;21.50;99.90;;;;;;5061462;28;20472;-66
2023/06/03 09:46:33;;;;;;;0.90;0.70;;;21.90;99.90;;;;;;5076725;28;20574;-68
2023/06/03 09:49:14;;;;;;;2.60;1.10;;;22.10;99.90;;;;;;5065203;28;21012;-64
2023/06/03 09:51:44;;;;;;;1.83;0.90;;;22.50;99.90;;;;;;5068389;28;20444;-63
2023/06/03 09:54:14;;;;;;;2.10;1.20;;;22.90;99.90;;;;;;5072507;28;20441;-66
2023/06/03 09:56:41;;;;;;;2.10;0.83;;;23.30;99.90;;;;;;5073182;28;20408;-65
2023/06/03 09:59:21;;;;;;;1.97;1.20;;;23.50;99.90;;;;;;5071735;28;20501;-63
2023/06/03 10:01:49;;;;;;;1.40;1.17;;;23.70;99.90;;;;;;5071782;28;20800;-64
2023/06/03 10:04:38;;;;;;;1.87;0.90;;;23.80;99.90;;;;;;5067633;28;20452;-66
2023/06/03 10:07:09;;;;;;;2.73;1.03;;;23.70;99.90;;;;;;5052828;28;20980;-66
2023/06/03 10:09:35;;;;;;;1.30;1.10;;;23.50;99.90;;;;;;5055100;28;20834;-64
2023/06/03 10:12:02;;;;;;;1.57;0.90;;;23.40;99.90;;;;;;5066691;28;20817;-68
2023/06/03 10:14:27;;;;;;;1.20;0.90;;;23.50;99.90;;;;;;5073069;28;20420;-67
2023/06/03 10:17:09;;;;;;;1.13;1.00;;;23.80;99.90;;;;;;5072980;28;20487;-67
2023/06/03 10:19:43;;;;;;;1.80;0.87;;;23.70;99.90;;;;;;5072310;28;20180;-70
2023/06/03 10:22:12;;;;;;;1.17;0.83;;;23.80;99.90;;;;;;5068758;28;20475;-66
2023/06/03 10:24:40;;;;;;;1.60;0.93;;;23.90;99.90;;;;;;5072978;28;20424;-70
2023/06/03 10:27:06;;;;;;;1.60;0.80;;;24.00;99.90;;;;;;5072907;28;20801;-70
2023/06/03 10:29:33;;;;;;;2.60;1.20;;;24.30;99.90;;;;;;5072059;28;20424;-70
2023/06/03 10:32:03;;;;;;;1.13;1.00;;;24.70;99.90;;;;;;5070847;28;20428;-70
2023/06/03 10:34:30;;;;;;;2.27;0.77;;;25.00;99.90;;;;;;5072587;28;20823;-71
2023/06/03 10:36:57;;;;;;;1.37;0.60;;;25.20;99.90;;;;;;5072549;28;20760;-68
2023/06/03 10:39:27;;;;;;;1.63;0.87;;;25.30;99.90;;;;;;5072719;28;20396;-69
2023/06/03 10:41:59;;;;;;;1.00;0.67;;;25.00;99.90;;;;;;5071914;28;20389;-70
2023/06/03 10:44:25;;;;;;;1.83;0.70;;;25.10;99.90;;;;;;5071472;28;20464;-70
2023/06/03 10:47:15;;;;;;;1.23;0.77;;;25.20;99.90;;;;;;5072557;28;20751;-69
2023/06/03 10:50:13;;;;;;;1.00;0.90;;;25.20;99.90;;;;;;5072712;28;20433;-68
2023/06/03 10:52:50;;;;;;;1.70;0.80;;;25.30;99.90;;;;;;5072680;28;20501;-68
2023/06/03 10:55:25;;;;;;;1.13;0.80;;;25.50;99.90;;;;;;5071947;28;20757;-71
2023/06/03 10:58:02;;;;;;;1.93;1.13;;;25.60;99.90;;;;;;5065266;28;20443;-69
2023/06/03 11:00:59;;;;;;;1.60;1.10;;;25.80;99.90;;;;;;5055395;28;20518;-69
2023/06/03 11:03:30;;;;;;;1.60;1.10;;;25.40;99.90;;;;;;5072222;28;20464;-70
2023/06/03 11:06:22;;;;;;;1.13;0.90;;;25.40;99.90;;;;;;5071128;28;20420;-70
2023/06/03 11:09:04;;;;;;;1.10;0.70;;;25.70;99.90;;;;;;5067561;28;20825;-71
2023/06/03 11:12:04;;;;;;;2.23;1.23;;;26.00;99.90;;;;;;5071495;28;20412;-72
2023/06/03 11:14:30;;;;;;;1.27;0.70;;;25.80;99.90;;;;;;5051827;28;20414;-70
2023/06/03 11:16:58;;;;;;;2.03;1.37;;;25.10;99.90;;;;;;5052239;28;20501;-71
2023/06/03 11:19:51;;;;;;;1.27;0.90;;;25.00;99.90;;;;;;5052365;28;20163;-69
2023/06/03 11:22:29;;;;;;;1.20;0.80;;;25.40;99.90;;;;;;5050542;28;20417;-70
2023/06/03 11:24:59;;;;;;;1.23;0.93;;;25.60;99.90;;;;;;5052310;28;20398;-70
2023/06/03 11:27:26;;;;;;;1.23;0.70;;;25.80;99.90;;;;;;5067948;28;20466;-72
2023/06/03 11:29:56;;;;;;;1.10;0.63;;;26.00;99.90;;;;;;5072117;28;20401;-72
2023/06/03 11:32:30;;;;;;;1.20;0.80;;;26.40;99.90;;;;;;5070039;28;20991;-72
2023/06/03 11:35:05;;;;;;;1.77;1.10;;;26.60;99.90;;;;;;5074498;28;20424;-68
2023/06/03 11:37:40;;;;;;;3.60;0.83;;;26.30;99.90;;;;;;5075859;28;20408;-71
2023/06/03 11:40:20;;;;;;;1.30;1.00;;;26.40;99.90;;;;;;5074926;28;20434;-77
2023/06/03 11:42:51;;;;;;;1.40;0.90;;;26.70;99.90;;;;;;5074107;28;20482;-71
2023/06/03 11:45:21;;;;;;;2.47;0.90;;;26.90;99.90;;;;;;5075557;28;20477;-72
2023/06/03 11:48:02;;;;;;;1.97;1.07;;;27.00;99.90;;;;;;5075633;28;20805;-72
2023/06/03 11:50:33;;;;;;;1.03;0.67;;;26.90;99.90;;;;;;5074410;28;20408;-71
2023/06/03 11:52:59;;;;;;;2.57;0.80;;;27.40;99.90;;;;;;5075321;28;20431;-72
2023/06/03 11:55:36;;;;;;;1.23;0.70;;;27.70;99.90;;;;;;5075448;28;20401;-72
2023/06/03 11:58:12;;;;;;;4.83;1.10;;;27.60;99.90;;;;;;5073529;28;20436;-71
2023/06/03 12:00:38;;;;;;;2.53;1.00;;;27.60;99.90;;;;;;5074593;28;20926;-71
2023/06/03 12:03:05;;;;;;;4.10;0.97;;;27.30;99.90;;;;;;5075424;28;20508;-72
2023/06/03 12:05:30;;;;;;;1.83;1.00;;;27.00;99.90;;;;;;5075321;28;20504;-72
2023/06/03 12:07:59;;;;;;;2.80;1.00;;;27.20;99.90;;;;;;5073563;28;20539;-69
2023/06/03 12:10:25;;;;;;;1.60;0.90;;;27.10;99.90;;;;;;5072984;28;20181;-70
2023/06/03 12:12:53;;;;;;;1.57;0.80;;;26.90;99.90;;;;;;5074305;28;20482;-72
2023/06/03 12:15:20;;;;;;;2.30;1.03;;;27.20;99.90;;;;;;5073067;28;20836;-68
2023/06/03 12:17:46;;;;;;;1.50;0.87;;;27.60;99.90;;;;;;5074737;28;20773;-69
2023/06/03 12:20:28;;;;;;;1.37;0.73;;;28.00;99.90;;;;;;5074184;28;20416;-69
2023/06/03 12:23:04;;;;;;;1.20;0.80;;;28.40;99.90;;;;;;5073837;28;20441;-66
2023/06/03 12:25:34;;;;;;;1.00;0.87;;;28.50;99.90;;;;;;5073832;28;20418;-69
2023/06/03 12:28:21;;;;;;;1.67;0.87;;;28.50;99.90;;;;;;5071684;28;20460;-68
2023/06/03 12:30:48;;;;;;;1.40;0.70;;;27.60;99.90;;;;;;5073905;28;20404;-68
2023/06/03 12:33:13;;;;;;;5.00;0.80;;;27.50;99.90;;;;;;5074853;28;20817;-67
2023/06/03 12:35:55;;;;;;;1.80;1.00;;;27.60;99.90;;;;;;5073860;28;20428;-66
2023/06/03 12:38:21;;;;;;;1.73;0.73;;;27.70;99.90;;;;;;5074632;28;20177;-69
2023/06/03 12:40:47;;;;;;;5.03;1.47;;;27.70;99.90;;;;;;5072074;28;20421;-67
2023/06/03 12:43:20;;;;;;;1.10;0.90;;;27.70;99.90;;;;;;5074447;28;20198;-66
2023/06/03 12:45:47;;;;;;;2.40;0.93;;;26.90;99.90;;;;;;5073250;28;20409;-67
2023/06/03 12:48:27;;;;;;;1.63;0.80;;;25.80;99.90;;;;;;5074187;28;20495;-67
2023/06/03 12:50:54;;;;;;;4.83;1.80;;;25.50;99.90;;;;;;5068732;28;20999;-67
2023/06/03 12:53:21;;;;;;;2.80;0.90;;;25.40;99.90;;;;;;5074168;28;20449;-69
2023/06/03 12:55:46;;;;;;;1.30;0.90;;;25.40;99.90;;;;;;5073106;28;20421;-74
2023/06/03 12:58:12;;;;;;;3.00;1.20;;;24.60;99.90;;;;;;5073490;28;20432;-68
2023/06/03 13:00:38;;;;;;;2.50;0.90;;;23.10;99.90;;;;;;5065294;28;20250;-72
2023/06/03 13:03:04;;;;;;;1.37;0.93;;;22.50;99.90;;;;;;5056496;28;20202;-72